Time;durP1;ratioP1;P1;durP2;ratioP2;P2;SDS_P1;SDS_P2;PMS_P1;PMS_P2;Temp;Humidity;BMP_temperature;BMP_pressure;BME280_temperature;BME280_humidity;BME280_pressure;Samples;Min_cycle;Max_cycle;Signal;HPM_P1;HPM_P2
2023/10/29 00:01:38;;;;;;;0.00;0.00;;;13.40;99.90;;;;;;5092011;28;20744;-59
2023/10/29 00:04:04;;;;;;;0.00;0.00;;;13.40;99.90;;;;;;5089282;28;20195;-60
2023/10/29 00:06:29;;;;;;;0.00;0.00;;;13.40;99.90;;;;;;5090553;28;20200;-59
2023/10/29 00:08:56;;;;;;;0.00;0.00;;;13.40;99.90;;;;;;5091578;28;20183;-60
2023/10/29 00:11:21;;;;;;;0.00;0.00;;;13.40;99.90;;;;;;5091225;28;20175;-60
2023/10/29 00:13:47;;;;;;;0.00;0.00;;;13.40;99.90;;;;;;5089931;28;20199;-59
2023/10/29 00:16:13;;;;;;;0.00;0.00;;;13.40;99.90;;;;;;5091182;28;20310;-61
2023/10/29 00:18:39;;;;;;;0.10;0.10;;;13.40;99.90;;;;;;5091523;28;20207;-60
2023/10/29 00:21:05;;;;;;;0.00;0.00;;;13.30;99.90;;;;;;5091290;28;20172;-59
2023/10/29 00:23:31;;;;;;;0.00;0.00;;;13.30;99.90;;;;;;5091586;28;20573;-59
2023/10/29 00:25:56;;;;;;;0.00;0.00;;;13.30;99.90;;;;;;5090844;28;20259;-59
2023/10/29 00:28:22;;;;;;;0.00;0.00;;;13.30;99.90;;;;;;5089751;28;20219;-59
2023/10/29 00:30:47;;;;;;;0.00;0.00;;;13.30;99.90;;;;;;5090418;28;20287;-60
2023/10/29 00:33:13;;;;;;;0.00;0.00;;;13.30;99.90;;;;;;5090872;28;20725;-59
2023/10/29 00:35:38;;;;;;;0.00;0.00;;;13.30;99.90;;;;;;5091352;28;20180;-59
2023/10/29 00:38:04;;;;;;;0.00;0.00;;;13.20;99.90;;;;;;5089243;28;20623;-59
2023/10/29 00:40:30;;;;;;;0.00;0.00;;;13.20;99.90;;;;;;5089872;28;20175;-59
2023/10/29 00:42:59;;;;;;;0.00;0.00;;;13.20;99.90;;;;;;5091375;28;20230;-59
2023/10/29 00:45:25;;;;;;;0.00;0.00;;;13.20;99.90;;;;;;5090634;28;20555;-59
2023/10/29 00:47:50;;;;;;;0.00;0.00;;;13.20;99.90;;;;;;5090591;28;20179;-59
2023/10/29 00:50:16;;;;;;;0.00;0.00;;;13.10;99.90;;;;;;5090752;28;20545;-60
2023/10/29 00:52:42;;;;;;;0.00;0.00;;;13.10;99.90;;;;;;5091220;28;20203;-59
2023/10/29 00:55:08;;;;;;;0.00;0.00;;;13.10;99.90;;;;;;5090790;28;20180;-59
2023/10/29 00:57:35;;;;;;;0.00;0.00;;;13.10;99.90;;;;;;5090131;28;20196;-59
2023/10/29 01:00:01;;;;;;;0.00;0.00;;;13.20;99.90;;;;;;5090149;28;20203;-60
2023/10/29 01:02:26;;;;;;;0.00;0.00;;;13.20;99.90;;;;;;5090722;28;20176;-59
2023/10/29 01:04:52;;;;;;;0.00;0.00;;;13.20;99.90;;;;;;5091151;28;20215;-60
2023/10/29 01:07:18;;;;;;;0.00;0.00;;;13.20;99.90;;;;;;5090391;28;20581;-59
2023/10/29 01:09:46;;;;;;;0.00;0.00;;;13.30;99.90;;;;;;5089938;28;20216;-61
2023/10/29 01:12:16;;;;;;;0.00;0.00;;;13.30;99.90;;;;;;5088962;28;20546;-60
2023/10/29 01:14:41;;;;;;;0.00;0.00;;;13.30;99.90;;;;;;5087983;28;20188;-59
2023/10/29 01:17:07;;;;;;;0.00;0.00;;;13.30;99.90;;;;;;5089827;28;20186;-60
2023/10/29 01:19:32;;;;;;;0.00;0.00;;;13.40;99.90;;;;;;5090381;28;20267;-60
2023/10/29 01:21:58;;;;;;;0.00;0.00;;;13.40;99.90;;;;;;5089613;28;20179;-60
2023/10/29 01:24:24;;;;;;;0.00;0.00;;;13.40;99.90;;;;;;5089255;28;20255;-60
2023/10/29 01:26:50;;;;;;;0.00;0.00;;;13.40;99.90;;;;;;5090422;28;20259;-59
2023/10/29 01:29:16;;;;;;;0.00;0.00;;;13.40;99.90;;;;;;5089494;28;20184;-60
2023/10/29 01:31:41;;;;;;;0.00;0.00;;;13.40;99.90;;;;;;5087327;28;20648;-60
2023/10/29 01:34:07;;;;;;;0.00;0.00;;;13.40;99.90;;;;;;5089248;28;20190;-59
2023/10/29 01:36:32;;;;;;;0.00;0.00;;;13.40;99.90;;;;;;5089554;28;20191;-59
2023/10/29 01:38:58;;;;;;;0.00;0.00;;;13.40;99.90;;;;;;5090038;28;20218;-59
2023/10/29 01:41:24;;;;;;;0.00;0.00;;;13.40;99.90;;;;;;5089886;28;20264;-59
2023/10/29 01:43:50;;;;;;;0.00;0.00;;;13.40;99.90;;;;;;5089872;28;20259;-60
2023/10/29 01:46:15;;;;;;;0.00;0.00;;;13.40;99.90;;;;;;5089146;28;20294;-60
2023/10/29 01:48:41;;;;;;;0.00;0.00;;;13.40;99.90;;;;;;5082346;28;20180;-59
2023/10/29 01:51:07;;;;;;;0.10;0.10;;;13.40;99.90;;;;;;5089552;28;20177;-60
2023/10/29 01:53:32;;;;;;;0.00;0.00;;;13.40;99.90;;;;;;5088560;28;20214;-60
2023/10/29 01:55:58;;;;;;;0.00;0.00;;;13.30;99.90;;;;;;5088444;28;20186;-60
2023/10/29 01:58:23;;;;;;;0.00;0.00;;;13.30;99.90;;;;;;5089759;28;20208;-60
2023/10/29 02:00:51;;;;;;;0.00;0.00;;;13.30;99.90;;;;;;5072683;28;20172;-60
2023/10/29 02:03:17;;;;;;;0.00;0.00;;;13.30;99.90;;;;;;5090150;28;20645;-60
2023/10/29 02:05:42;;;;;;;0.00;0.00;;;13.20;99.90;;;;;;5090601;28;20183;-60
2023/10/29 02:08:08;;;;;;;0.00;0.00;;;13.20;99.90;;;;;;5090436;28;20224;-60
2023/10/29 02:10:33;;;;;;;0.00;0.00;;;13.10;99.90;;;;;;5090541;28;20173;-60
2023/10/29 02:12:59;;;;;;;0.00;0.00;;;13.10;99.90;;;;;;5090422;28;20172;-60
2023/10/29 02:15:24;;;;;;;0.00;0.00;;;13.00;99.90;;;;;;5090015;28;20175;-61
2023/10/29 02:17:50;;;;;;;0.00;0.00;;;13.10;99.90;;;;;;5090515;28;20212;-59
2023/10/29 02:20:16;;;;;;;0.00;0.00;;;13.10;99.90;;;;;;5090161;28;20211;-60
2023/10/29 02:22:41;;;;;;;0.00;0.00;;;13.10;99.90;;;;;;5090602;28;20223;-59
2023/10/29 02:25:07;;;;;;;0.00;0.00;;;13.10;99.90;;;;;;5089879;28;20203;-59
2023/10/29 02:27:34;;;;;;;0.00;0.00;;;13.10;99.90;;;;;;5088858;28;20188;-60
2023/10/29 02:29:59;;;;;;;0.00;0.00;;;13.20;99.90;;;;;;5090609;28;20553;-59
2023/10/29 02:32:25;;;;;;;0.00;0.00;;;13.20;99.90;;;;;;5091116;28;20228;-59
2023/10/29 02:34:50;;;;;;;0.00;0.00;;;13.30;99.90;;;;;;5091514;28;20267;-59
2023/10/29 02:37:16;;;;;;;0.00;0.00;;;13.40;99.90;;;;;;5091190;28;20592;-60
2023/10/29 02:39:41;;;;;;;0.00;0.00;;;13.40;99.90;;;;;;5091383;28;20202;-59
2023/10/29 02:42:07;;;;;;;0.00;0.00;;;13.50;99.90;;;;;;5091305;28;20172;-59
2023/10/29 02:44:32;;;;;;;0.00;0.00;;;13.60;99.90;;;;;;5091305;28;20195;-59
2023/10/29 02:46:58;;;;;;;0.00;0.00;;;13.60;99.90;;;;;;5091375;28;20306;-59
2023/10/29 02:49:23;;;;;;;0.00;0.00;;;13.70;99.90;;;;;;5091153;28;20179;-60
2023/10/29 02:51:49;;;;;;;0.00;0.00;;;13.70;99.90;;;;;;5089966;28;20172;-59
2023/10/29 02:54:14;;;;;;;0.00;0.00;;;13.80;99.90;;;;;;5091281;28;20245;-60
2023/10/29 02:56:40;;;;;;;0.00;0.00;;;13.80;99.90;;;;;;5091069;28;20639;-60
2023/10/29 02:59:06;;;;;;;0.00;0.00;;;13.80;99.90;;;;;;5091047;28;20211;-60
2023/10/29 03:01:31;;;;;;;0.00;0.00;;;13.90;99.90;;;;;;5091115;28;20164;-60
2023/10/29 03:03:57;;;;;;;0.00;0.00;;;13.90;99.90;;;;;;5091288;28;20168;-60
2023/10/29 03:06:23;;;;;;;0.00;0.00;;;14.00;99.90;;;;;;5091052;28;20198;-60
2023/10/29 03:08:48;;;;;;;0.00;0.00;;;14.00;99.80;;;;;;5091192;28;20207;-60
2023/10/29 03:11:14;;;;;;;0.00;0.00;;;14.10;99.80;;;;;;5091028;28;20183;-60
2023/10/29 03:13:39;;;;;;;0.00;0.00;;;14.10;99.80;;;;;;5091096;28;20176;-60
2023/10/29 03:16:05;;;;;;;0.00;0.00;;;14.00;99.90;;;;;;5090969;28;20259;-59
2023/10/29 03:18:31;;;;;;;0.00;0.00;;;14.00;99.90;;;;;;5090979;28;20280;-59
2023/10/29 03:20:57;;;;;;;0.00;0.00;;;14.00;99.80;;;;;;5091089;28;20171;-59
2023/10/29 03:23:24;;;;;;;0.00;0.00;;;13.90;99.80;;;;;;5090841;28;20191;-59
2023/10/29 03:25:49;;;;;;;0.00;0.00;;;13.90;99.90;;;;;;5090914;28;20177;-59
2023/10/29 03:28:15;;;;;;;0.00;0.00;;;13.90;99.90;;;;;;5090931;28;20180;-60
2023/10/29 03:30:40;;;;;;;0.00;0.00;;;13.80;99.90;;;;;;5091021;28;20204;-60
2023/10/29 03:33:06;;;;;;;0.00;0.00;;;13.80;99.80;;;;;;5090549;28;20227;-60
2023/10/29 03:35:32;;;;;;;0.00;0.00;;;13.90;99.30;;;;;;5090830;28;20678;-59
2023/10/29 03:37:57;;;;;;;0.00;0.00;;;13.90;99.30;;;;;;5092017;28;20783;-60
2023/10/29 03:40:23;;;;;;;0.00;0.00;;;13.90;99.30;;;;;;5094349;28;20176;-60
2023/10/29 03:42:48;;;;;;;0.05;0.05;;;14.00;99.40;;;;;;5093162;28;20187;-59
2023/10/29 03:45:14;;;;;;;0.00;0.00;;;13.90;99.40;;;;;;5094423;28;20204;-60
2023/10/29 03:47:42;;;;;;;0.00;0.00;;;13.90;99.30;;;;;;5094414;28;20251;-60
2023/10/29 03:50:08;;;;;;;0.00;0.00;;;13.90;99.20;;;;;;5094410;28;20261;-60
2023/10/29 03:52:34;;;;;;;0.00;0.00;;;13.90;99.30;;;;;;5094234;28;20600;-59
2023/10/29 03:55:00;;;;;;;0.00;0.00;;;13.90;99.30;;;;;;5093114;28;20263;-59
2023/10/29 03:57:25;;;;;;;0.00;0.00;;;13.90;99.40;;;;;;5093851;28;20192;-59
2023/10/29 03:59:51;;;;;;;0.00;0.00;;;13.80;99.60;;;;;;5094173;28;20255;-60
2023/10/29 04:02:16;;;;;;;0.00;0.00;;;13.80;99.60;;;;;;5094061;28;20176;-59
2023/10/29 04:04:42;;;;;;;0.00;0.00;;;13.80;99.70;;;;;;5094175;28;20180;-59
2023/10/29 04:07:07;;;;;;;0.00;0.00;;;13.70;99.80;;;;;;5093973;28;20579;-59
2023/10/29 04:09:33;;;;;;;0.00;0.00;;;13.60;99.80;;;;;;5093730;28;20188;-59
2023/10/29 04:12:00;;;;;;;0.00;0.00;;;13.60;99.70;;;;;;5093935;28;20230;-59
2023/10/29 04:14:26;;;;;;;0.00;0.00;;;13.60;99.80;;;;;;5075699;28;20215;-59
2023/10/29 04:16:51;;;;;;;0.00;0.00;;;13.60;99.60;;;;;;5093762;28;20195;-59
2023/10/29 04:19:17;;;;;;;0.00;0.00;;;13.60;99.20;;;;;;5092316;28;20207;-59
2023/10/29 04:21:42;;;;;;;0.00;0.00;;;13.60;99.40;;;;;;5093751;28;20181;-60
2023/10/29 04:24:08;;;;;;;0.00;0.00;;;13.60;99.30;;;;;;5093644;28;20183;-60
2023/10/29 04:26:33;;;;;;;0.00;0.00;;;13.60;99.40;;;;;;5093556;28;20180;-58
2023/10/29 04:28:59;;;;;;;0.00;0.00;;;13.60;99.10;;;;;;5092236;28;20188;-59
2023/10/29 04:31:24;;;;;;;0.00;0.00;;;13.60;99.10;;;;;;5092133;28;20620;-59
2023/10/29 04:33:51;;;;;;;0.00;0.00;;;13.70;98.90;;;;;;5093350;28;20228;-59
2023/10/29 04:36:22;;;;;;;0.00;0.00;;;13.70;99.00;;;;;;5093355;28;20169;-59
2023/10/29 04:38:47;;;;;;;0.00;0.00;;;13.70;98.90;;;;;;5093328;28;20285;-59
2023/10/29 04:41:13;;;;;;;0.00;0.00;;;13.60;98.90;;;;;;5093362;28;20222;-59
2023/10/29 04:43:41;;;;;;;0.00;0.00;;;13.70;99.00;;;;;;5093300;28;20635;-59
2023/10/29 04:46:06;;;;;;;0.00;0.00;;;13.70;99.00;;;;;;5093179;28;20164;-59
2023/10/29 04:48:32;;;;;;;0.00;0.00;;;13.70;99.10;;;;;;5092806;28;20587;-59
2023/10/29 04:50:57;;;;;;;0.00;0.00;;;13.70;99.20;;;;;;5092312;28;20172;-60
2023/10/29 04:53:23;;;;;;;0.00;0.00;;;13.70;99.10;;;;;;5092157;28;20179;-60
2023/10/29 04:55:48;;;;;;;0.00;0.00;;;13.70;99.10;;;;;;5092105;28;20172;-60
2023/10/29 04:58:14;;;;;;;0.00;0.00;;;13.60;99.20;;;;;;5092729;28;20294;-60
2023/10/29 05:00:39;;;;;;;0.00;0.00;;;13.60;99.20;;;;;;5091377;28;20215;-59
2023/10/29 05:03:05;;;;;;;0.00;0.00;;;13.70;99.10;;;;;;5086195;28;20184;-60
2023/10/29 05:05:30;;;;;;;0.00;0.00;;;13.70;99.10;;;;;;5087777;28;20172;-60
2023/10/29 05:07:56;;;;;;;0.00;0.00;;;13.70;99.20;;;;;;5087835;28;20207;-60
2023/10/29 05:10:25;;;;;;;0.00;0.00;;;13.60;99.20;;;;;;5089629;28;20238;-60
2023/10/29 05:12:50;;;;;;;0.00;0.00;;;13.60;99.00;;;;;;5092178;28;20663;-60
2023/10/29 05:15:16;;;;;;;0.10;0.10;;;13.70;99.00;;;;;;5092056;28;20271;-59
2023/10/29 05:17:41;;;;;;;0.00;0.00;;;13.70;98.80;;;;;;5087083;28;20246;-59
2023/10/29 05:20:09;;;;;;;0.00;0.00;;;13.70;99.10;;;;;;5087319;28;21852;-60
2023/10/29 05:22:35;;;;;;;0.10;0.10;;;13.70;99.10;;;;;;5087203;28;20259;-60
2023/10/29 05:25:02;;;;;;;0.00;0.00;;;13.60;99.10;;;;;;5091326;28;20634;-59
2023/10/29 05:27:28;;;;;;;0.00;0.00;;;13.60;99.00;;;;;;5092226;28;20188;-60
2023/10/29 05:29:53;;;;;;;0.00;0.00;;;13.60;98.70;;;;;;5092175;28;20168;-60
2023/10/29 05:32:19;;;;;;;0.00;0.00;;;13.60;99.00;;;;;;5091963;28;20231;-59
2023/10/29 05:34:45;;;;;;;0.00;0.00;;;13.60;99.00;;;;;;5092036;28;20255;-59
2023/10/29 05:37:11;;;;;;;0.00;0.00;;;13.60;98.80;;;;;;5092057;28;20259;-60
2023/10/29 05:39:36;;;;;;;0.00;0.00;;;13.60;99.10;;;;;;5091944;28;20184;-59
2023/10/29 05:42:02;;;;;;;0.00;0.00;;;13.60;99.10;;;;;;5091889;28;20187;-60
2023/10/29 05:44:28;;;;;;;0.00;0.00;;;13.60;99.30;;;;;;5091968;28;20723;-60
2023/10/29 05:46:53;;;;;;;0.00;0.00;;;13.60;99.10;;;;;;5091973;28;20259;-59
2023/10/29 05:49:19;;;;;;;0.00;0.00;;;13.60;99.30;;;;;;5090569;28;20172;-59
2023/10/29 05:51:44;;;;;;;0.00;0.00;;;13.60;99.50;;;;;;5091677;28;20195;-59
2023/10/29 05:54:10;;;;;;;0.00;0.00;;;13.60;99.60;;;;;;5091835;28;20164;-58
2023/10/29 05:56:35;;;;;;;0.00;0.00;;;13.60;99.90;;;;;;5091658;28;20184;-59
2023/10/29 05:59:01;;;;;;;0.00;0.00;;;13.60;99.80;;;;;;5091285;28;20221;-59
2023/10/29 06:01:26;;;;;;;0.00;0.00;;;13.60;99.90;;;;;;5091030;28;20180;-59
2023/10/29 06:03:52;;;;;;;0.00;0.00;;;13.50;99.90;;;;;;5090248;28;20963;-59
2023/10/29 06:06:17;;;;;;;0.00;0.00;;;13.50;99.90;;;;;;5091480;28;20180;-60
2023/10/29 06:08:43;;;;;;;0.00;0.00;;;13.40;99.90;;;;;;5090947;28;20208;-59
2023/10/29 06:11:08;;;;;;;0.00;0.00;;;13.40;99.90;;;;;;5091564;28;20251;-59
2023/10/29 06:13:34;;;;;;;0.00;0.00;;;13.40;99.90;;;;;;5091618;28;20619;-59
2023/10/29 06:15:59;;;;;;;0.00;0.00;;;13.40;99.90;;;;;;5091699;28;20738;-58
2023/10/29 06:18:25;;;;;;;0.00;0.00;;;13.40;99.90;;;;;;5091349;28;20219;-60
2023/10/29 06:20:53;;;;;;;0.00;0.00;;;13.40;99.90;;;;;;5091566;28;20180;-60
2023/10/29 06:23:20;;;;;;;0.00;0.00;;;13.40;99.90;;;;;;5091383;28;20180;-60
2023/10/29 06:25:46;;;;;;;0.00;0.00;;;13.40;99.90;;;;;;5090998;28;20180;-60
2023/10/29 06:28:11;;;;;;;0.00;0.00;;;13.40;99.90;;;;;;5091479;28;20182;-59
2023/10/29 06:30:37;;;;;;;0.00;0.00;;;13.40;99.90;;;;;;5091520;28;20176;-59
2023/10/29 06:33:02;;;;;;;0.00;0.00;;;13.40;99.90;;;;;;5091020;28;20735;-59
2023/10/29 06:35:28;;;;;;;0.00;0.00;;;13.40;99.90;;;;;;5091390;28;20250;-60
2023/10/29 06:37:53;;;;;;;0.00;0.00;;;13.40;99.90;;;;;;5091128;28;20248;-59
2023/10/29 06:40:19;;;;;;;0.00;0.00;;;13.40;99.90;;;;;;5091401;28;20176;-60
2023/10/29 06:42:45;;;;;;;0.00;0.00;;;13.40;99.90;;;;;;5091456;28;20168;-59
2023/10/29 06:45:11;;;;;;;0.00;0.00;;;13.40;99.90;;;;;;5090096;28;20819;-59
2023/10/29 06:47:37;;;;;;;0.00;0.00;;;13.40;99.90;;;;;;5091287;28;20172;-59
2023/10/29 06:50:02;;;;;;;0.03;0.03;;;13.40;99.90;;;;;;5091316;28;20229;-59
2023/10/29 06:52:28;;;;;;;0.00;0.00;;;13.40;99.90;;;;;;5091208;28;20180;-59
2023/10/29 06:54:53;;;;;;;0.00;0.00;;;13.40;99.90;;;;;;5091413;28;20183;-59
2023/10/29 06:57:20;;;;;;;0.00;0.00;;;13.40;99.90;;;;;;5091062;28;20642;-59
2023/10/29 06:59:45;;;;;;;0.00;0.00;;;13.40;99.90;;;;;;5090751;28;20589;-59
2023/10/29 07:02:11;;;;;;;0.00;0.00;;;13.40;99.90;;;;;;5090878;28;20180;-58
2023/10/29 07:04:36;;;;;;;0.00;0.00;;;13.30;99.90;;;;;;5090877;28;20184;-59
2023/10/29 07:07:02;;;;;;;0.00;0.00;;;13.20;99.90;;;;;;5090629;28;20190;-58
2023/10/29 07:09:27;;;;;;;0.00;0.00;;;13.20;99.90;;;;;;5090863;28;20172;-60
2023/10/29 07:11:55;;;;;;;0.05;0.05;;;13.20;99.90;;;;;;5090678;28;20546;-59
2023/10/29 07:14:21;;;;;;;0.00;0.00;;;13.20;99.90;;;;;;5093186;28;20180;-58
2023/10/29 07:16:46;;;;;;;0.08;0.08;;;13.10;99.90;;;;;;5094673;28;20184;-59
2023/10/29 07:19:12;;;;;;;0.00;0.00;;;13.00;99.90;;;;;;5094383;28;20639;-61
2023/10/29 07:21:38;;;;;;;0.00;0.00;;;12.90;99.90;;;;;;5094601;28;20184;-59
2023/10/29 07:24:05;;;;;;;0.00;0.00;;;12.90;99.90;;;;;;5093104;28;20184;-59
2023/10/29 07:26:32;;;;;;;0.05;0.05;;;12.90;99.90;;;;;;5094496;28;20172;-58
2023/10/29 07:28:58;;;;;;;0.00;0.00;;;12.90;99.90;;;;;;5094848;28;20194;-59
2023/10/29 07:31:24;;;;;;;0.00;0.00;;;12.90;99.90;;;;;;5093779;28;20647;-59
2023/10/29 07:33:51;;;;;;;0.10;0.10;;;12.90;99.90;;;;;;5094248;28;20227;-59
2023/10/29 07:36:17;;;;;;;0.00;0.00;;;12.90;99.90;;;;;;5094318;28;20180;-61
2023/10/29 07:38:43;;;;;;;0.00;0.00;;;12.90;99.90;;;;;;5094058;28;20212;-59
2023/10/29 07:41:09;;;;;;;0.20;0.20;;;12.90;99.90;;;;;;5092733;28;20196;-59
2023/10/29 07:43:35;;;;;;;0.00;0.00;;;12.90;99.90;;;;;;5093772;28;20259;-61
2023/10/29 07:46:02;;;;;;;0.00;0.00;;;12.90;99.90;;;;;;5094240;28;20176;-58
2023/10/29 07:48:28;;;;;;;0.10;0.10;;;13.00;99.90;;;;;;5094009;28;20180;-60
2023/10/29 07:50:53;;;;;;;0.00;0.00;;;13.00;99.90;;;;;;5094004;28;20589;-60
2023/10/29 07:53:19;;;;;;;0.00;0.00;;;13.00;99.90;;;;;;5094117;28;20188;-60
2023/10/29 07:55:45;;;;;;;0.00;0.00;;;13.00;99.90;;;;;;5093764;28;20176;-59
2023/10/29 07:58:10;;;;;;;0.00;0.00;;;13.10;99.90;;;;;;5093966;28;20204;-58
2023/10/29 08:00:36;;;;;;;0.00;0.00;;;13.10;99.90;;;;;;5094049;28;20191;-59
2023/10/29 08:03:02;;;;;;;0.00;0.00;;;13.10;99.90;;;;;;5092315;28;20543;-58
2023/10/29 08:05:27;;;;;;;0.00;0.00;;;13.20;99.90;;;;;;5093581;28;20841;-59
2023/10/29 08:07:53;;;;;;;0.00;0.00;;;13.20;99.90;;;;;;5093398;28;20191;-58
2023/10/29 08:10:19;;;;;;;0.00;0.00;;;13.20;99.90;;;;;;5093566;28;20184;-59
2023/10/29 08:12:44;;;;;;;0.00;0.00;;;13.20;99.90;;;;;;5093637;28;20203;-59
2023/10/29 08:15:10;;;;;;;0.00;0.00;;;13.20;99.90;;;;;;5093074;28;20270;-59
2023/10/29 08:17:35;;;;;;;0.00;0.00;;;13.10;99.90;;;;;;5093732;28;20361;-59
2023/10/29 08:20:02;;;;;;;0.00;0.00;;;13.10;99.90;;;;;;5093637;28;20628;-59
2023/10/29 08:22:28;;;;;;;0.00;0.00;;;13.20;99.90;;;;;;5093322;28;20791;-60
2023/10/29 08:24:54;;;;;;;0.00;0.00;;;13.10;99.90;;;;;;5093414;28;20264;-59
2023/10/29 08:27:19;;;;;;;0.00;0.00;;;13.20;99.90;;;;;;5093512;28;20183;-59
2023/10/29 08:29:45;;;;;;;0.00;0.00;;;13.20;99.90;;;;;;5092346;28;20209;-60
2023/10/29 08:32:11;;;;;;;0.00;0.00;;;13.20;99.90;;;;;;5093309;28;20289;-60
2023/10/29 08:34:36;;;;;;;0.00;0.00;;;13.20;99.90;;;;;;5093533;28;20543;-58
2023/10/29 08:37:02;;;;;;;0.00;0.00;;;13.20;99.90;;;;;;5092057;28;20186;-59
2023/10/29 08:39:27;;;;;;;0.00;0.00;;;13.20;99.90;;;;;;5093259;28;20314;-60
2023/10/29 08:41:53;;;;;;;0.00;0.00;;;13.30;99.90;;;;;;5093510;28;20178;-59
2023/10/29 08:44:19;;;;;;;0.00;0.00;;;13.30;99.90;;;;;;5093255;28;20309;-60
2023/10/29 08:46:46;;;;;;;0.00;0.00;;;13.40;99.90;;;;;;5093331;28;20176;-60
2023/10/29 08:49:12;;;;;;;0.00;0.00;;;13.40;99.90;;;;;;5091968;28;20184;-59
2023/10/29 08:51:37;;;;;;;0.00;0.00;;;13.50;99.90;;;;;;5093145;28;20174;-59
2023/10/29 08:54:03;;;;;;;0.00;0.00;;;13.60;99.90;;;;;;5091720;28;20195;-59
2023/10/29 08:56:33;;;;;;;0.00;0.00;;;13.60;99.90;;;;;;5091824;28;20176;-59
2023/10/29 08:58:59;;;;;;;0.00;0.00;;;13.70;99.90;;;;;;5092946;28;20298;-60
2023/10/29 09:01:25;;;;;;;0.00;0.00;;;13.70;99.90;;;;;;5093036;28;20272;-60
2023/10/29 09:03:50;;;;;;;0.00;0.00;;;13.80;99.90;;;;;;5093100;28;20259;-59
2023/10/29 09:06:16;;;;;;;0.00;0.00;;;13.70;99.90;;;;;;5091535;28;20172;-60
2023/10/29 09:08:42;;;;;;;0.00;0.00;;;13.80;99.90;;;;;;5092623;28;20639;-60
2023/10/29 09:11:13;;;;;;;0.00;0.00;;;13.80;99.90;;;;;;5092934;28;20594;-59
2023/10/29 09:13:39;;;;;;;0.00;0.00;;;13.90;99.90;;;;;;5092404;28;20184;-60
2023/10/29 09:16:04;;;;;;;0.03;0.03;;;14.00;99.90;;;;;;5091731;28;20172;-60
2023/10/29 09:18:30;;;;;;;0.00;0.00;;;14.10;99.90;;;;;;5092047;28;20239;-60
2023/10/29 09:20:55;;;;;;;0.00;0.00;;;14.10;99.90;;;;;;5092114;28;20175;-59
2023/10/29 09:23:23;;;;;;;0.10;0.10;;;14.20;99.90;;;;;;5092177;28;20542;-60
2023/10/29 09:25:49;;;;;;;0.00;0.00;;;14.30;99.90;;;;;;5092248;28;20183;-60
2023/10/29 09:28:16;;;;;;;0.52;0.52;;;14.30;99.90;;;;;;5092027;28;20180;-60
2023/10/29 09:30:42;;;;;;;0.00;0.00;;;14.40;99.90;;;;;;5092060;28;20184;-59
2023/10/29 09:33:08;;;;;;;0.00;0.00;;;14.40;99.90;;;;;;5091837;28;20306;-60
2023/10/29 09:35:37;;;;;;;0.03;0.00;;;14.50;99.90;;;;;;5091448;28;20179;-60
2023/10/29 09:38:03;;;;;;;0.00;0.00;;;14.40;99.90;;;;;;5091734;28;20207;-59
2023/10/29 09:40:29;;;;;;;0.00;0.00;;;14.40;99.90;;;;;;5090829;28;20182;-59
2023/10/29 09:42:59;;;;;;;0.00;0.00;;;14.30;99.90;;;;;;5092109;28;20700;-60
2023/10/29 09:45:26;;;;;;;0.00;0.00;;;14.30;99.90;;;;;;5092261;28;20212;-60
2023/10/29 09:47:56;;;;;;;0.00;0.00;;;14.30;99.90;;;;;;5092231;28;20663;-60
2023/10/29 09:50:22;;;;;;;0.10;0.10;;;14.30;99.90;;;;;;5107185;28;20191;-59
2023/10/29 09:52:55;;;;;;;0.00;0.00;;;14.30;99.90;;;;;;5091570;28;20184;-60
2023/10/29 09:55:22;;;;;;;0.00;0.00;;;14.30;99.90;;;;;;5091995;28;20171;-59
2023/10/29 09:57:51;;;;;;;0.00;0.00;;;14.20;99.90;;;;;;5091809;28;20238;-59
2023/10/29 10:00:17;;;;;;;0.00;0.00;;;14.20;99.90;;;;;;5091403;28;20571;-60
2023/10/29 10:02:48;;;;;;;0.00;0.00;;;14.20;99.90;;;;;;5091671;28;20538;-59
2023/10/29 10:05:18;;;;;;;0.00;0.00;;;14.20;99.90;;;;;;5091688;28;20271;-60
2023/10/29 10:07:43;;;;;;;0.00;0.00;;;14.10;99.90;;;;;;5090434;28;20240;-59
2023/10/29 10:10:09;;;;;;;0.00;0.00;;;14.10;99.90;;;;;;5091160;28;20631;-59
2023/10/29 10:12:45;;;;;;;0.00;0.00;;;14.10;99.90;;;;;;5091475;28;20187;-59
2023/10/29 10:15:11;;;;;;;0.00;0.00;;;14.00;99.90;;;;;;5091471;28;20171;-60
2023/10/29 10:17:36;;;;;;;0.00;0.00;;;14.00;99.90;;;;;;5091209;28;20219;-60
2023/10/29 10:20:11;;;;;;;0.00;0.00;;;14.10;99.90;;;;;;5091342;28;20180;-59
2023/10/29 10:22:36;;;;;;;0.00;0.00;;;14.10;99.90;;;;;;5075589;28;20213;-60
2023/10/29 10:25:03;;;;;;;0.00;0.00;;;14.10;99.90;;;;;;5091008;28;20558;-59
2023/10/29 10:27:29;;;;;;;0.10;0.10;;;14.10;99.90;;;;;;5091268;28;20191;-59
2023/10/29 10:29:54;;;;;;;0.00;0.00;;;14.00;99.90;;;;;;5091443;28;20233;-59
2023/10/29 10:32:24;;;;;;;0.00;0.00;;;14.00;99.90;;;;;;5090419;28;20224;-60
2023/10/29 10:34:52;;;;;;;0.00;0.00;;;14.10;99.90;;;;;;5091274;28;20175;-59
2023/10/29 10:37:18;;;;;;;0.00;0.00;;;14.20;99.90;;;;;;5091064;28;20188;-60
2023/10/29 10:39:43;;;;;;;0.00;0.00;;;14.20;99.90;;;;;;5091246;28;20176;-60
2023/10/29 10:42:09;;;;;;;0.00;0.00;;;14.30;99.90;;;;;;5090204;28;20536;-60
2023/10/29 10:44:36;;;;;;;0.00;0.00;;;14.40;99.90;;;;;;5091349;28;20275;-59
2023/10/29 10:47:03;;;;;;;0.00;0.00;;;14.50;99.90;;;;;;5092701;28;20186;-60
2023/10/29 10:49:32;;;;;;;0.00;0.00;;;14.60;99.90;;;;;;5095547;28;20175;-61
2023/10/29 10:52:01;;;;;;;0.00;0.00;;;14.70;99.90;;;;;;5095497;28;20172;-59
2023/10/29 10:54:27;;;;;;;0.00;0.00;;;14.80;99.90;;;;;;5095019;28;20168;-60
2023/10/29 10:56:54;;;;;;;0.00;0.00;;;14.80;99.90;;;;;;5095439;28;20587;-59
2023/10/29 10:59:20;;;;;;;0.00;0.00;;;14.90;99.90;;;;;;5095037;28;20207;-59
2023/10/29 11:01:48;;;;;;;0.05;0.05;;;15.00;99.90;;;;;;5095382;28;20207;-59
2023/10/29 11:04:14;;;;;;;0.00;0.00;;;15.00;99.90;;;;;;5095319;28;20195;-60
2023/10/29 11:06:42;;;;;;;0.00;0.00;;;15.00;99.90;;;;;;5095048;28;20183;-59
2023/10/29 11:09:12;;;;;;;0.00;0.00;;;15.10;99.90;;;;;;5095148;28;20191;-59
2023/10/29 11:11:50;;;;;;;0.00;0.00;;;15.30;99.90;;;;;;5095096;28;20214;-60
2023/10/29 11:14:18;;;;;;;0.00;0.00;;;15.40;99.90;;;;;;5095022;28;20417;-60
2023/10/29 11:16:54;;;;;;;0.00;0.00;;;15.60;99.90;;;;;;5093742;28;20282;-60
2023/10/29 11:19:44;;;;;;;0.00;0.00;;;15.70;99.90;;;;;;5094726;28;20250;-59
2023/10/29 11:22:13;;;;;;;0.00;0.00;;;15.80;99.90;;;;;;5095070;28;20704;-60
2023/10/29 11:24:39;;;;;;;0.00;0.00;;;15.80;99.90;;;;;;5094657;28;20200;-60
2023/10/29 11:27:53;;;;;;;0.00;0.00;;;15.90;99.90;;;;;;5093875;28;20665;-60
2023/10/29 11:30:23;;;;;;;0.00;0.00;;;16.10;99.90;;;;;;5073063;28;20194;-60
2023/10/29 11:33:19;;;;;;;0.28;0.28;;;16.10;99.90;;;;;;5094078;28;20219;-60
2023/10/29 11:35:45;;;;;;;0.00;0.00;;;16.30;99.90;;;;;;5093168;28;20188;-60
2023/10/29 11:38:37;;;;;;;0.00;0.00;;;16.50;99.90;;;;;;5094393;28;20216;-60
2023/10/29 11:41:33;;;;;;;0.00;0.00;;;16.70;99.90;;;;;;5094104;28;20588;-60
2023/10/29 11:44:18;;;;;;;0.00;0.00;;;16.90;99.90;;;;;;5094030;28;20207;-60
2023/10/29 11:46:55;;;;;;;0.00;0.00;;;17.00;99.90;;;;;;5093873;28;20187;-60
2023/10/29 11:49:22;;;;;;;0.00;0.00;;;17.10;99.90;;;;;;5093908;28;20275;-59
2023/10/29 11:52:01;;;;;;;0.00;0.00;;;17.30;99.90;;;;;;5094105;28;20188;-60
2023/10/29 11:54:28;;;;;;;0.00;0.00;;;17.40;99.90;;;;;;5094019;28;20183;-60
2023/10/29 11:56:57;;;;;;;0.00;0.00;;;17.70;99.90;;;;;;5093659;28;20639;-60
2023/10/29 11:59:23;;;;;;;0.00;0.00;;;17.80;99.90;;;;;;5092961;28;20226;-60
2023/10/29 12:01:49;;;;;;;0.00;0.00;;;18.10;99.90;;;;;;5092552;28;20184;-61
2023/10/29 12:04:14;;;;;;;0.00;0.00;;;18.50;99.90;;;;;;5093730;28;20198;-61
2023/10/29 12:06:44;;;;;;;0.00;0.00;;;18.60;99.90;;;;;;5093605;28;20184;-60
2023/10/29 12:09:22;;;;;;;0.00;0.00;;;18.50;99.90;;;;;;5093682;28;20703;-60
2023/10/29 12:11:51;;;;;;;0.00;0.00;;;18.30;99.90;;;;;;5093710;28;20631;-60
2023/10/29 12:14:46;;;;;;;0.00;0.00;;;18.10;99.90;;;;;;5093631;28;20510;-61
2023/10/29 12:17:14;;;;;;;0.00;0.00;;;18.00;99.90;;;;;;5093327;28;20172;-60
2023/10/29 12:19:41;;;;;;;0.00;0.00;;;17.90;99.90;;;;;;5093547;28;20212;-60
2023/10/29 12:22:18;;;;;;;0.00;0.00;;;17.80;99.90;;;;;;5093538;28;20177;-60
2023/10/29 12:24:45;;;;;;;0.00;0.00;;;17.80;99.90;;;;;;5093444;28;20214;-60
2023/10/29 12:27:11;;;;;;;0.00;0.00;;;17.70;99.90;;;;;;5092720;28;20180;-61
2023/10/29 12:29:37;;;;;;;0.00;0.00;;;17.60;99.90;;;;;;5092684;28;20645;-60
2023/10/29 12:32:03;;;;;;;0.00;0.00;;;17.40;99.90;;;;;;5092600;28;20302;-60
2023/10/29 12:34:45;;;;;;;0.00;0.00;;;17.20;99.90;;;;;;5092080;28;20811;-60
2023/10/29 12:37:19;;;;;;;0.00;0.00;;;17.00;99.90;;;;;;5093524;28;20179;-59
2023/10/29 12:39:46;;;;;;;0.00;0.00;;;16.80;99.90;;;;;;5092743;28;20646;-61
2023/10/29 12:42:12;;;;;;;0.05;0.05;;;16.80;99.90;;;;;;5093446;28;20187;-60
2023/10/29 12:44:38;;;;;;;0.00;0.00;;;16.80;99.90;;;;;;5093224;28;20184;-60
2023/10/29 12:47:06;;;;;;;0.00;0.00;;;16.90;99.90;;;;;;5092103;28;20224;-60